createdAt,value
2023-05-13T00:00:29.033Z,2.75
2023-05-13T00:02:55.463Z,2.70
2023-05-13T00:05:22.335Z,2.67
2023-05-13T00:07:48.847Z,2.48
2023-05-13T00:10:15.232Z,2.72
2023-05-13T00:12:41.583Z,2.67
2023-05-13T00:15:07.922Z,2.68
2023-05-13T00:17:34.691Z,2.53
2023-05-13T00:20:01.253Z,2.48
2023-05-13T00:22:27.645Z,2.87
2023-05-13T00:24:54.073Z,2.87
2023-05-13T00:27:20.774Z,2.81
2023-05-13T00:29:53.861Z,2.68
2023-05-13T00:32:20.375Z,2.57
2023-05-13T00:34:48.945Z,2.72
2023-05-13T00:37:15.752Z,2.89
2023-05-13T00:39:45.859Z,2.80
2023-05-13T00:42:14.794Z,2.74
2023-05-13T00:44:41.167Z,2.95
2023-05-13T00:47:09.573Z,3.03
2023-05-13T00:49:36.261Z,3.20
2023-05-13T00:52:02.669Z,2.83
2023-05-13T00:54:29.066Z,2.81
2023-05-13T00:56:55.768Z,2.96
2023-05-13T00:59:22.643Z,3.17
2023-05-13T01:01:51.396Z,3.02
2023-05-13T01:04:17.893Z,3.00
2023-05-13T01:06:44.222Z,2.81
2023-05-13T01:09:11.232Z,2.60
2023-05-13T01:11:38.637Z,2.54
2023-05-13T01:14:04.990Z,2.63
2023-05-13T01:16:31.389Z,2.64
2023-05-13T01:19:02.456Z,2.45
2023-05-13T01:21:29.414Z,2.73
2023-05-13T01:23:57.347Z,2.59
2023-05-13T01:26:23.885Z,2.71
2023-05-13T01:28:55.756Z,2.61
2023-05-13T01:31:29.629Z,2.47
2023-05-13T01:33:56.422Z,2.61
2023-05-13T01:36:23.700Z,2.54
2023-05-13T01:38:53.164Z,2.52
2023-05-13T01:41:19.792Z,2.61
2023-05-13T01:43:46.337Z,2.42
2023-05-13T01:46:13.141Z,2.62
2023-05-13T01:48:47.392Z,2.60
2023-05-13T01:51:13.888Z,2.38
2023-05-13T01:53:40.298Z,2.48
2023-05-13T01:56:06.730Z,2.73
2023-05-13T01:58:33.318Z,2.90
2023-05-13T02:00:59.698Z,2.49
2023-05-13T02:03:26.515Z,2.54
2023-05-13T02:05:53.077Z,2.52
2023-05-13T02:08:19.764Z,2.66
2023-05-13T02:10:46.346Z,2.69
2023-05-13T02:13:12.738Z,2.49
2023-05-13T02:15:39.445Z,2.54
2023-05-13T02:18:05.887Z,2.42
2023-05-13T02:20:32.341Z,2.39
2023-05-13T02:22:59.198Z,2.66
2023-05-13T02:25:26.430Z,2.62
2023-05-13T02:27:53.028Z,2.72
2023-05-13T02:30:19.635Z,3.48
2023-05-13T02:32:47.435Z,3.27
2023-05-13T02:35:13.853Z,2.63
2023-05-13T02:37:40.244Z,2.65
2023-05-13T02:40:06.645Z,2.58
2023-05-13T02:42:33.189Z,2.54
2023-05-13T02:45:05.203Z,2.59
2023-05-13T02:47:31.753Z,3.39
2023-05-13T02:49:58.192Z,3.48
2023-05-13T02:52:24.890Z,3.84
2023-05-13T02:54:51.281Z,3.79
2023-05-13T02:57:17.691Z,2.90
2023-05-13T02:59:44.094Z,2.57
2023-05-13T03:02:10.614Z,2.60
2023-05-13T03:04:39.540Z,2.53
2023-05-13T03:07:06.031Z,2.33
2023-05-13T03:09:33.593Z,2.50
2023-05-13T03:12:02.081Z,2.50
2023-05-13T03:14:28.470Z,2.60
2023-05-13T03:16:57.644Z,2.48
2023-05-13T03:19:24.365Z,2.50
2023-05-13T03:21:50.947Z,2.62
2023-05-13T03:24:17.338Z,2.83
2023-05-13T03:26:47.665Z,2.91
2023-05-13T03:29:14.036Z,2.89
2023-05-13T03:31:43.077Z,3.29
2023-05-13T03:34:09.497Z,3.23
2023-05-13T03:36:35.878Z,3.20
2023-05-13T03:39:10.256Z,3.12
2023-05-13T03:41:37.684Z,3.03
2023-05-13T03:44:04.246Z,3.19
2023-05-13T03:46:30.888Z,2.92
2023-05-13T03:48:57.226Z,3.11
2023-05-13T03:51:23.558Z,3.18
2023-05-13T03:53:50.404Z,3.21
2023-05-13T03:56:16.809Z,3.01
2023-05-13T03:58:44.510Z,3.00
2023-05-13T04:01:10.894Z,3.03
2023-05-13T04:03:37.227Z,3.08
2023-05-13T04:06:03.769Z,3.01
2023-05-13T04:08:30.168Z,3.08
2023-05-13T04:10:58.857Z,3.46
2023-05-13T04:13:25.316Z,3.74
2023-05-13T04:15:51.991Z,3.39
2023-05-13T04:18:18.557Z,3.59
2023-05-13T04:20:45.031Z,3.97
2023-05-13T04:23:11.639Z,3.30
2023-05-13T04:25:38.334Z,3.37
2023-05-13T04:28:04.674Z,3.38
2023-05-13T04:30:33.391Z,3.34
2023-05-13T04:33:00.509Z,3.68
2023-05-13T04:35:27.065Z,3.92
2023-05-13T04:37:53.502Z,3.76
2023-05-13T04:40:19.992Z,3.77
2023-05-13T04:42:46.656Z,4.15
2023-05-13T04:45:14.156Z,4.45
2023-05-13T04:47:42.877Z,4.20
2023-05-13T04:50:09.380Z,5.26
2023-05-13T04:52:36.041Z,5.01
2023-05-13T04:55:02.430Z,4.77
2023-05-13T04:57:28.787Z,5.03
2023-05-13T04:59:55.473Z,5.15
2023-05-13T05:02:22.881Z,4.71
2023-05-13T05:04:49.379Z,5.13
2023-05-13T05:07:15.923Z,5.19
2023-05-13T05:09:44.761Z,5.10
2023-05-13T05:12:18.505Z,4.83
2023-05-13T05:14:44.863Z,4.75
2023-05-13T05:17:11.642Z,5.04
2023-05-13T05:19:38.042Z,5.32
2023-05-13T05:22:04.643Z,5.72
2023-05-13T05:24:31.562Z,5.53
2023-05-13T05:26:58.481Z,4.74
2023-05-13T05:29:24.838Z,4.31
2023-05-13T05:31:52.438Z,4.78
2023-05-13T05:34:18.799Z,5.59
2023-05-13T05:36:45.179Z,5.41
2023-05-13T05:39:11.560Z,5.08
2023-05-13T05:41:38.122Z,5.52
2023-05-13T05:44:04.506Z,5.63
2023-05-13T05:46:31.126Z,5.61
2023-05-13T05:48:57.819Z,5.71
2023-05-13T05:51:24.213Z,5.77
2023-05-13T05:53:50.566Z,6.30
2023-05-13T05:56:16.907Z,5.82
2023-05-13T05:58:45.788Z,6.05
2023-05-13T06:01:12.228Z,6.24
2023-05-13T06:03:38.963Z,6.91
2023-05-13T06:06:07.221Z,6.49
2023-05-13T06:08:33.617Z,6.84
2023-05-13T06:10:59.958Z,5.90
2023-05-13T06:13:26.342Z,5.90
2023-05-13T06:15:55.614Z,5.96
2023-05-13T06:18:22.064Z,5.83
2023-05-13T06:20:48.798Z,7.46
2023-05-13T06:23:19.214Z,11.91
2023-05-13T06:25:45.546Z,10.66
2023-05-13T06:28:11.926Z,9.04
2023-05-13T06:30:38.652Z,8.47
2023-05-13T06:33:05.137Z,8.69
2023-05-13T06:35:31.874Z,9.06
2023-05-13T06:37:58.626Z,9.01
2023-05-13T06:40:25.457Z,9.19
2023-05-13T06:42:54.086Z,8.97
2023-05-13T06:45:22.943Z,8.77
2023-05-13T06:47:49.305Z,9.48
2023-05-13T06:50:16.014Z,9.89
2023-05-13T06:52:43.473Z,9.74
2023-05-13T06:55:09.973Z,9.15
2023-05-13T06:57:43.002Z,8.65
2023-05-13T07:00:09.913Z,8.38
2023-05-13T07:02:38.513Z,9.07
2023-05-13T07:05:04.987Z,9.66
2023-05-13T07:07:31.447Z,9.59
2023-05-13T07:09:57.838Z,9.48
2023-05-13T07:12:24.258Z,9.76
2023-05-13T07:14:50.616Z,9.82
2023-05-13T07:17:17.177Z,10.48
2023-05-13T07:19:44.759Z,10.81
2023-05-13T07:22:11.109Z,10.82
2023-05-13T07:24:37.491Z,10.18
2023-05-13T07:27:03.963Z,9.96
2023-05-13T07:29:30.351Z,9.82
2023-05-13T07:31:56.961Z,9.58
2023-05-13T07:34:26.182Z,9.64
2023-05-13T07:36:52.591Z,9.90
2023-05-13T07:39:20.105Z,9.47
2023-05-13T07:41:46.489Z,9.30
2023-05-13T07:44:12.870Z,9.93
2023-05-13T07:46:39.343Z,10.03
2023-05-13T07:49:05.814Z,9.44
2023-05-13T07:51:32.561Z,9.15
2023-05-13T07:53:58.973Z,9.10
2023-05-13T07:56:25.795Z,9.16
2023-05-13T07:58:54.470Z,9.16
2023-05-13T08:01:20.809Z,9.72
2023-05-13T08:03:48.180Z,9.88
2023-05-13T08:06:14.669Z,9.32
2023-05-13T08:08:43.336Z,8.97
2023-05-13T08:11:09.680Z,9.35
2023-05-13T08:13:38.178Z,9.83
2023-05-13T08:16:04.765Z,8.86
2023-05-13T08:18:31.668Z,9.15
2023-05-13T08:20:58.336Z,9.46
2023-05-13T08:23:33.511Z,8.77
2023-05-13T08:26:10.149Z,9.12
2023-05-13T08:28:36.489Z,9.74
2023-05-13T08:31:02.838Z,9.73
2023-05-13T08:33:29.243Z,9.80
2023-05-13T08:35:57.529Z,9.56
2023-05-13T08:38:24.098Z,9.28
2023-05-13T08:40:50.516Z,9.80
2023-05-13T08:43:17.021Z,10.35
2023-05-13T08:45:44.604Z,10.52
2023-05-13T08:48:11.028Z,10.07
2023-05-13T08:50:37.452Z,10.20
2023-05-13T08:53:04.160Z,10.75
2023-05-13T08:55:30.551Z,10.17
2023-05-13T08:57:57.041Z,10.80
2023-05-13T09:00:23.804Z,10.50
2023-05-13T09:02:52.803Z,9.96
2023-05-13T09:05:19.464Z,10.06
2023-05-13T09:07:45.961Z,9.38
2023-05-13T09:10:12.495Z,9.31
2023-05-13T09:12:38.843Z,8.73
2023-05-13T09:15:05.999Z,8.75
2023-05-13T09:17:32.450Z,8.60
2023-05-13T09:19:58.962Z,8.32
2023-05-13T09:22:25.368Z,8.43
2023-05-13T09:24:52.515Z,8.23
2023-05-13T09:27:19.984Z,8.45
2023-05-13T09:29:46.814Z,8.97
2023-05-13T09:32:13.295Z,8.23
2023-05-13T09:34:39.857Z,8.26
2023-05-13T09:37:06.253Z,8.02
2023-05-13T09:39:33.767Z,7.78
2023-05-13T09:42:01.724Z,7.82
2023-05-13T09:44:29.831Z,7.23
2023-05-13T09:46:56.457Z,7.19
2023-05-13T09:49:23.032Z,7.11
2023-05-13T09:51:49.522Z,7.34
2023-05-13T09:54:18.371Z,7.66
2023-05-13T09:56:44.757Z,7.65
2023-05-13T09:59:11.254Z,7.42
2023-05-13T10:01:37.847Z,7.84
2023-05-13T10:04:04.287Z,7.53
2023-05-13T10:06:30.905Z,7.36
2023-05-13T10:08:57.326Z,7.20
2023-05-13T10:11:24.715Z,5.96
2023-05-13T10:13:51.371Z,5.89
2023-05-13T10:16:17.848Z,5.66
2023-05-13T10:18:44.249Z,6.10
2023-05-13T10:21:10.593Z,5.96
2023-05-13T10:23:39.771Z,5.72
2023-05-13T10:26:06.515Z,6.05
2023-05-13T10:28:35.240Z,6.01
2023-05-13T10:31:04.345Z,5.14
2023-05-13T10:33:30.776Z,5.24
2023-05-13T10:35:57.494Z,5.20
2023-05-13T10:38:23.838Z,4.67
2023-05-13T10:40:50.296Z,4.88
2023-05-13T10:43:16.687Z,4.87
2023-05-13T10:45:43.030Z,4.09
2023-05-13T10:48:11.797Z,4.02
2023-05-13T10:50:38.262Z,3.67
2023-05-13T10:53:04.920Z,3.69
2023-05-13T10:55:34.034Z,3.93
2023-05-13T10:58:00.628Z,3.73
2023-05-13T11:00:27.434Z,3.80
2023-05-13T11:02:53.901Z,3.61
2023-05-13T11:05:20.378Z,3.47
2023-05-13T11:07:46.800Z,3.66
2023-05-13T11:10:13.189Z,3.24
2023-05-13T11:12:39.574Z,2.65
2023-05-13T11:15:05.970Z,2.61
2023-05-13T11:17:33.553Z,2.86
2023-05-13T11:20:00.025Z,2.77
2023-05-13T11:22:26.501Z,3.07
2023-05-13T11:24:53.219Z,3.36
2023-05-13T11:27:19.667Z,3.91
2023-05-13T11:29:46.466Z,4.08
2023-05-13T11:32:12.822Z,4.17
2023-05-13T11:34:39.200Z,4.25
2023-05-13T11:37:05.585Z,3.94
2023-05-13T11:39:34.654Z,3.64
2023-05-13T11:42:01.555Z,3.36
2023-05-13T11:44:28.002Z,3.64
2023-05-13T11:46:57.262Z,3.89
2023-05-13T11:49:23.713Z,4.15
2023-05-13T11:51:51.242Z,4.15
2023-05-13T11:54:17.578Z,3.93
2023-05-13T11:56:45.105Z,3.85
2023-05-13T11:59:11.452Z,3.31
2023-05-13T12:01:38.171Z,3.27
2023-05-13T12:04:05.568Z,2.93
2023-05-13T12:06:32.135Z,3.21
2023-05-13T12:08:58.630Z,3.85
2023-05-13T12:11:25.004Z,3.88
2023-05-13T12:13:51.591Z,3.97
2023-05-13T12:16:18.024Z,3.69
2023-05-13T12:18:44.622Z,3.69
2023-05-13T12:21:11.033Z,3.79
2023-05-13T12:23:37.518Z,3.44
2023-05-13T12:26:03.907Z,3.24
2023-05-13T12:28:30.272Z,3.49
2023-05-13T12:30:56.839Z,3.49
2023-05-13T12:33:23.252Z,4.17
2023-05-13T12:35:49.622Z,3.55
2023-05-13T12:38:15.966Z,3.23
2023-05-13T12:40:42.289Z,2.98
2023-05-13T12:43:08.616Z,2.71
2023-05-13T12:45:37.021Z,2.89
2023-05-13T12:48:05.179Z,3.09
2023-05-13T12:50:31.620Z,4.32
2023-05-13T12:52:58.061Z,6.04
2023-05-13T12:55:24.592Z,6.43
2023-05-13T12:57:51.077Z,6.82
2023-05-13T13:00:17.414Z,6.95
2023-05-13T13:02:44.072Z,7.01
2023-05-13T13:05:10.565Z,6.93
2023-05-13T13:07:36.941Z,6.84
2023-05-13T13:10:03.272Z,6.39
2023-05-13T13:12:29.630Z,5.94
2023-05-13T13:14:55.967Z,5.69
2023-05-13T13:17:22.458Z,6.21
2023-05-13T13:19:48.888Z,6.35
2023-05-13T13:22:15.273Z,6.77
2023-05-13T13:24:41.595Z,6.44
2023-05-13T13:27:07.971Z,6.53
2023-05-13T13:29:34.315Z,6.68
2023-05-13T13:32:00.688Z,6.36
2023-05-13T13:34:27.058Z,5.82
2023-05-13T13:36:53.436Z,6.11
2023-05-13T13:39:21.964Z,6.10
2023-05-13T13:41:48.287Z,5.67
2023-05-13T13:44:14.659Z,5.68
2023-05-13T13:46:41.037Z,5.78
2023-05-13T13:49:20.344Z,5.53
2023-05-13T13:51:49.908Z,6.55
2023-05-13T13:54:16.246Z,5.79
2023-05-13T13:56:42.617Z,5.62
2023-05-13T13:59:08.974Z,5.82
2023-05-13T14:01:35.356Z,5.53
2023-05-13T14:04:01.718Z,4.55
2023-05-13T14:06:28.159Z,5.05
2023-05-13T14:08:56.794Z,4.71
2023-05-13T14:11:23.127Z,4.46
2023-05-13T14:13:49.499Z,4.34
2023-05-13T14:16:16.894Z,4.35
2023-05-13T14:18:46.129Z,3.72
2023-05-13T14:21:12.660Z,3.34
2023-05-13T14:23:39.815Z,2.96
2023-05-13T14:26:06.239Z,3.20
2023-05-13T14:28:32.643Z,3.25
2023-05-13T14:30:58.993Z,3.45
2023-05-13T14:33:25.368Z,3.24
2023-05-13T14:35:51.712Z,2.67
2023-05-13T14:38:18.039Z,2.32
2023-05-13T14:40:44.420Z,2.28
2023-05-13T14:43:10.812Z,2.44
2023-05-13T14:45:37.202Z,2.29
2023-05-13T14:48:06.085Z,2.38
2023-05-13T14:50:32.438Z,2.41
2023-05-13T14:52:59.135Z,2.48
2023-05-13T14:55:25.495Z,2.13
2023-05-13T14:57:51.833Z,1.93
2023-05-13T15:00:18.401Z,1.94
2023-05-13T15:02:44.863Z,1.93
2023-05-13T15:05:11.556Z,1.57
2023-05-13T15:07:37.914Z,1.47
2023-05-13T15:10:04.304Z,1.61
2023-05-13T15:12:30.713Z,1.84
2023-05-13T15:14:57.116Z,1.83
2023-05-13T15:17:23.765Z,1.45
2023-05-13T15:19:50.243Z,1.55
2023-05-13T15:22:16.777Z,2.42
2023-05-13T15:24:45.486Z,2.19
2023-05-13T15:27:11.956Z,2.22
2023-05-13T15:29:38.371Z,2.62
2023-05-13T15:32:04.762Z,3.32
2023-05-13T15:34:31.612Z,3.57
2023-05-13T15:36:57.970Z,2.73
2023-05-13T15:39:24.346Z,2.18
2023-05-13T15:41:50.748Z,2.57
2023-05-13T15:44:17.112Z,2.23
2023-05-13T15:46:45.277Z,1.86
2023-05-13T15:49:13.317Z,1.36
2023-05-13T15:51:39.792Z,1.25
2023-05-13T15:54:06.132Z,1.42
2023-05-13T15:56:32.540Z,1.68
2023-05-13T15:59:01.015Z,1.99
2023-05-13T16:01:27.462Z,2.36
2023-05-13T16:03:53.837Z,2.31
2023-05-13T16:06:20.546Z,2.13
2023-05-13T16:08:46.914Z,2.48
2023-05-13T16:11:13.360Z,1.95
2023-05-13T16:13:42.036Z,1.66
2023-05-13T16:16:09.494Z,1.69
2023-05-13T16:18:35.991Z,2.03
2023-05-13T16:21:02.379Z,2.02
2023-05-13T16:23:28.796Z,1.52
2023-05-13T16:25:56.360Z,1.41
2023-05-13T16:28:22.966Z,1.45
2023-05-13T16:30:49.317Z,1.41
2023-05-13T16:33:15.665Z,1.37
2023-05-13T16:35:42.046Z,1.50
2023-05-13T16:38:08.424Z,3.09
2023-05-13T16:40:34.909Z,2.13
2023-05-13T16:43:03.747Z,1.67
2023-05-13T16:45:30.471Z,1.21
2023-05-13T16:47:58.076Z,1.25
2023-05-13T16:50:24.787Z,1.38
2023-05-13T16:52:51.404Z,1.37
2023-05-13T16:55:17.814Z,1.45
2023-05-13T16:57:44.194Z,1.27
2023-05-13T17:00:10.580Z,1.22
2023-05-13T17:02:37.082Z,1.41
2023-05-13T17:05:06.914Z,1.31
2023-05-13T17:07:33.331Z,1.17
2023-05-13T17:09:59.715Z,1.42
2023-05-13T17:12:26.366Z,1.64
2023-05-13T17:14:52.757Z,1.77
2023-05-13T17:17:21.568Z,1.95
2023-05-13T17:19:47.950Z,1.85
2023-05-13T17:22:14.652Z,1.97
2023-05-13T17:24:41.860Z,1.83
2023-05-13T17:27:08.328Z,1.72
2023-05-13T17:29:35.710Z,1.69
2023-05-13T17:32:02.066Z,1.72
2023-05-13T17:34:28.455Z,1.77
2023-05-13T17:36:54.914Z,1.72
2023-05-13T17:39:21.377Z,1.93
2023-05-13T17:41:47.869Z,1.83
2023-05-13T17:44:14.209Z,1.93
2023-05-13T17:46:40.821Z,2.45
2023-05-13T17:49:07.257Z,2.40
2023-05-13T17:51:33.793Z,2.46
2023-05-13T17:54:00.434Z,2.34
2023-05-13T17:56:26.889Z,2.41
2023-05-13T17:58:55.769Z,2.50
2023-05-13T18:01:22.484Z,2.23
2023-05-13T18:03:48.895Z,2.35
2023-05-13T18:06:16.600Z,2.29
2023-05-13T18:08:43.160Z,2.50
2023-05-13T18:11:09.578Z,2.52
2023-05-13T18:13:35.985Z,2.41
2023-05-13T18:16:02.399Z,2.39
2023-05-13T18:18:28.852Z,2.48
2023-05-13T18:20:55.717Z,2.63
2023-05-13T18:23:23.647Z,2.57
2023-05-13T18:25:55.935Z,2.51
2023-05-13T18:28:23.792Z,2.63
2023-05-13T18:30:50.208Z,2.76
2023-05-13T18:33:16.611Z,2.61
2023-05-13T18:35:43.022Z,2.94
2023-05-13T18:38:09.486Z,2.79
2023-05-13T18:40:36.197Z,2.67
2023-05-13T18:43:02.646Z,2.71
2023-05-13T18:45:29.121Z,2.41
2023-05-13T18:47:55.719Z,2.23
2023-05-13T18:50:22.496Z,2.46
2023-05-13T18:52:49.173Z,2.37
2023-05-13T18:55:15.668Z,2.32
2023-05-13T18:57:42.026Z,2.21
2023-05-13T19:00:08.718Z,2.33
2023-05-13T19:02:35.435Z,2.56
2023-05-13T19:05:02.400Z,2.69
2023-05-13T19:07:28.751Z,2.59
2023-05-13T19:09:56.458Z,2.75
2023-05-13T19:12:23.019Z,3.02
2023-05-13T19:14:49.626Z,3.07
2023-05-13T19:17:17.025Z,3.17
2023-05-13T19:19:44.051Z,3.02
2023-05-13T19:22:12.943Z,3.01
2023-05-13T19:24:39.444Z,3.28
2023-05-13T19:27:09.217Z,3.57
2023-05-13T19:29:35.814Z,3.77
2023-05-13T19:32:02.605Z,3.61
2023-05-13T19:34:29.048Z,3.55
2023-05-13T19:36:55.508Z,3.09
2023-05-13T19:39:27.385Z,3.24
2023-05-13T19:41:53.953Z,2.96
2023-05-13T19:44:20.361Z,2.96
2023-05-13T19:46:47.359Z,3.26
2023-05-13T19:49:13.946Z,3.31
2023-05-13T19:51:40.661Z,3.20
2023-05-13T19:54:07.149Z,3.16
2023-05-13T19:56:33.498Z,3.30
2023-05-13T19:59:00.058Z,3.54
2023-05-13T20:01:27.006Z,3.54
2023-05-13T20:03:53.663Z,3.52
2023-05-13T20:06:20.172Z,3.63
2023-05-13T20:08:46.645Z,3.75
2023-05-13T20:11:16.013Z,3.82
2023-05-13T20:13:42.394Z,3.82
2023-05-13T20:16:09.800Z,3.83
2023-05-13T20:18:36.179Z,3.74
2023-05-13T20:21:04.083Z,4.26
2023-05-13T20:23:30.442Z,5.46
2023-05-13T20:25:57.518Z,5.55
2023-05-13T20:28:24.145Z,4.30
2023-05-13T20:30:53.144Z,4.05
2023-05-13T20:33:19.585Z,4.02
2023-05-13T20:35:45.968Z,4.01
2023-05-13T20:38:12.369Z,3.82
2023-05-13T20:40:38.757Z,3.71
2023-05-13T20:43:07.560Z,3.57
2023-05-13T20:45:34.283Z,3.52
2023-05-13T20:48:00.673Z,3.39
2023-05-13T20:50:29.620Z,3.37
2023-05-13T20:52:55.995Z,3.37
2023-05-13T20:55:22.801Z,3.92
2023-05-13T20:57:49.316Z,3.94
2023-05-13T21:00:21.180Z,3.76
2023-05-13T21:02:48.194Z,3.36
2023-05-13T21:05:14.609Z,3.37
2023-05-13T21:07:41.017Z,3.20
2023-05-13T21:10:08.969Z,3.32
2023-05-13T21:12:40.044Z,3.52
2023-05-13T21:15:06.946Z,3.49
2023-05-13T21:17:33.343Z,4.18
2023-05-13T21:20:01.358Z,4.18
2023-05-13T21:22:27.854Z,3.72
2023-05-13T21:24:55.780Z,3.78
2023-05-13T21:27:22.170Z,3.90
2023-05-13T21:29:48.542Z,3.89
2023-05-13T21:32:14.911Z,4.08
2023-05-13T21:34:41.835Z,3.60
2023-05-13T21:37:08.381Z,3.69
2023-05-13T21:39:35.072Z,3.49
2023-05-13T21:42:01.401Z,3.56
2023-05-13T21:44:28.305Z,3.45
2023-05-13T21:46:54.676Z,3.46
2023-05-13T21:49:21.339Z,3.32
2023-05-13T21:51:48.077Z,3.60
2023-05-13T21:54:17.227Z,3.49
2023-05-13T21:59:24.317Z,3.41
2023-05-13T22:01:50.940Z,3.49
2023-05-13T22:04:18.833Z,3.84
2023-05-13T22:06:48.799Z,4.29
2023-05-13T22:09:17.695Z,4.37
2023-05-13T22:11:44.937Z,4.57
2023-05-13T22:14:11.416Z,4.72
2023-05-13T22:16:37.987Z,5.19
2023-05-13T22:19:06.942Z,5.45
2023-05-13T22:21:36.814Z,5.08
2023-05-13T22:24:03.316Z,5.12
2023-05-13T22:26:30.248Z,4.75
2023-05-13T22:28:59.193Z,4.96
2023-05-13T22:31:25.860Z,5.31
2023-05-13T22:33:52.775Z,5.34
2023-05-13T22:36:19.192Z,5.11
2023-05-13T22:38:46.146Z,4.67
2023-05-13T22:41:17.751Z,4.83
